sensor_id;sensor_type;location;lat;lon;timestamp;pressure;altitude;pressure_sealevel;temperature;humidity
6567;BME280;3317;43.994;22.878;2022-10-16T00:00:40;101850.78;;;13.32;54.61
6567;BME280;3317;43.994;22.878;2022-10-16T00:03:09;101853.63;;;13.30;54.35
6567;BME280;3317;43.994;22.878;2022-10-16T00:05:39;101858.38;;;13.28;54.51
6567;BME280;3317;43.994;22.878;2022-10-16T00:08:09;101856.06;;;13.23;54.91
6567;BME280;3317;43.994;22.878;2022-10-16T00:10:36;101851.78;;;13.21;54.30
6567;BME280;3317;43.994;22.878;2022-10-16T00:13:04;101851.22;;;13.17;54.75
6567;BME280;3317;43.994;22.878;2022-10-16T00:15:33;101845.75;;;13.07;55.27
6567;BME280;3317;43.994;22.878;2022-10-16T00:18:01;101841.19;;;13.08;55.10
6567;BME280;3317;43.994;22.878;2022-10-16T00:20:28;101835.03;;;13.06;54.60
6567;BME280;3317;43.994;22.878;2022-10-16T00:22:56;101842.31;;;13.05;54.77
6567;BME280;3317;43.994;22.878;2022-10-16T00:25:25;101839.19;;;13.00;54.64
6567;BME280;3317;43.994;22.878;2022-10-16T00:27:52;101838.75;;;13.05;55.27
6567;BME280;3317;43.994;22.878;2022-10-16T00:30:19;101820.97;;;12.91;54.77
6567;BME280;3317;43.994;22.878;2022-10-16T00:32:46;101829.13;;;13.01;54.71
6567;BME280;3317;43.994;22.878;2022-10-16T00:35:13;101829.31;;;12.99;54.76
6567;BME280;3317;43.994;22.878;2022-10-16T00:37:40;101832.16;;;12.98;55.12
6567;BME280;3317;43.994;22.878;2022-10-16T00:40:07;101829.72;;;12.94;55.07
6567;BME280;3317;43.994;22.878;2022-10-16T00:42:36;101829.00;;;12.92;54.78
6567;BME280;3317;43.994;22.878;2022-10-16T00:45:04;101828.13;;;12.92;55.30
6567;BME280;3317;43.994;22.878;2022-10-16T00:47:34;101825.00;;;12.87;54.59
6567;BME280;3317;43.994;22.878;2022-10-16T00:50:07;101832.28;;;12.86;54.80
6567;BME280;3317;43.994;22.878;2022-10-16T00:52:35;101824.28;;;12.85;55.22
6567;BME280;3317;43.994;22.878;2022-10-16T00:55:05;101829.16;;;12.81;55.12
6567;BME280;3317;43.994;22.878;2022-10-16T00:57:33;101832.00;;;12.79;54.18
6567;BME280;3317;43.994;22.878;2022-10-16T01:00:03;101844.03;;;12.77;53.63
6567;BME280;3317;43.994;22.878;2022-10-16T01:02:30;101830.56;;;12.65;53.05
6567;BME280;3317;43.994;22.878;2022-10-16T01:04:58;101853.03;;;12.77;54.57
6567;BME280;3317;43.994;22.878;2022-10-16T01:07:36;101862.34;;;12.75;53.71
6567;BME280;3317;43.994;22.878;2022-10-16T01:10:17;101855.19;;;12.74;54.72
6567;BME280;3317;43.994;22.878;2022-10-16T01:12:50;101854.63;;;12.70;54.83
6567;BME280;3317;43.994;22.878;2022-10-16T01:15:25;101852.31;;;12.65;53.97
6567;BME280;3317;43.994;22.878;2022-10-16T01:17:58;101857.91;;;12.64;54.60
6567;BME280;3317;43.994;22.878;2022-10-16T01:20:30;101860.59;;;12.64;55.17
6567;BME280;3317;43.994;22.878;2022-10-16T01:23:15;101864.34;;;12.63;55.61
6567;BME280;3317;43.994;22.878;2022-10-16T01:25:59;101870.19;;;12.58;55.91
6567;BME280;3317;43.994;22.878;2022-10-16T01:28:39;101869.59;;;12.54;54.97
6567;BME280;3317;43.994;22.878;2022-10-16T01:31:07;101869.88;;;12.51;55.32
6567;BME280;3317;43.994;22.878;2022-10-16T01:33:39;101872.59;;;12.51;54.76
6567;BME280;3317;43.994;22.878;2022-10-16T01:36:12;101876.31;;;12.50;55.38
6567;BME280;3317;43.994;22.878;2022-10-16T01:38:41;101876.91;;;12.44;55.51
6567;BME280;3317;43.994;22.878;2022-10-16T01:41:15;101875.44;;;12.40;55.56
6567;BME280;3317;43.994;22.878;2022-10-16T01:43:48;101876.16;;;12.42;55.88
6567;BME280;3317;43.994;22.878;2022-10-16T01:46:19;101875.44;;;12.40;55.43
6567;BME280;3317;43.994;22.878;2022-10-16T01:48:48;101886.47;;;12.38;55.95
6567;BME280;3317;43.994;22.878;2022-10-16T01:51:17;101886.72;;;12.35;54.81
6567;BME280;3317;43.994;22.878;2022-10-16T01:53:48;101885.88;;;12.35;54.34
6567;BME280;3317;43.994;22.878;2022-10-16T01:56:17;101886.69;;;12.25;55.29
6567;BME280;3317;43.994;22.878;2022-10-16T01:58:50;101899.88;;;12.30;55.22
6567;BME280;3317;43.994;22.878;2022-10-16T02:01:20;101891.13;;;12.27;55.11
6567;BME280;3317;43.994;22.878;2022-10-16T02:03:51;101892.41;;;12.22;56.10
6567;BME280;3317;43.994;22.878;2022-10-16T02:06:20;101890.81;;;12.20;56.41
6567;BME280;3317;43.994;22.878;2022-10-16T02:08:48;101887.78;;;12.13;56.01
6567;BME280;3317;43.994;22.878;2022-10-16T02:11:15;101890.09;;;12.18;55.17
6567;BME280;3317;43.994;22.878;2022-10-16T02:13:45;101885.84;;;12.04;54.63
6567;BME280;3317;43.994;22.878;2022-10-16T02:16:15;101888.16;;;12.08;54.13
6567;BME280;3317;43.994;22.878;2022-10-16T02:18:43;101894.47;;;12.09;53.54
6567;BME280;3317;43.994;22.878;2022-10-16T02:21:15;101905.94;;;12.13;54.18
6567;BME280;3317;43.994;22.878;2022-10-16T02:23:50;101907.06;;;12.10;53.95
6567;BME280;3317;43.994;22.878;2022-10-16T02:26:25;101913.50;;;12.09;54.19
6567;BME280;3317;43.994;22.878;2022-10-16T02:28:57;101912.44;;;12.00;54.78
6567;BME280;3317;43.994;22.878;2022-10-16T02:31:31;101898.75;;;11.90;54.73
6567;BME280;3317;43.994;22.878;2022-10-16T02:34:01;101915.91;;;12.02;54.85
6567;BME280;3317;43.994;22.878;2022-10-16T02:36:31;101913.28;;;12.01;55.53
6567;BME280;3317;43.994;22.878;2022-10-16T02:38:59;101913.56;;;11.97;55.45
6567;BME280;3317;43.994;22.878;2022-10-16T02:41:27;101911.81;;;11.96;55.00
6567;BME280;3317;43.994;22.878;2022-10-16T02:43:54;101910.94;;;11.96;54.85
6567;BME280;3317;43.994;22.878;2022-10-16T02:46:21;101918.53;;;11.92;55.58
6567;BME280;3317;43.994;22.878;2022-10-16T02:48:50;101928.81;;;11.89;55.38
6567;BME280;3317;43.994;22.878;2022-10-16T02:51:17;101925.38;;;11.87;54.01
6567;BME280;3317;43.994;22.878;2022-10-16T02:53:44;101925.47;;;11.85;54.14
6567;BME280;3317;43.994;22.878;2022-10-16T02:56:11;101923.75;;;11.84;54.69
6567;BME280;3317;43.994;22.878;2022-10-16T02:58:38;101925.59;;;11.83;54.37
6567;BME280;3317;43.994;22.878;2022-10-16T03:01:05;101924.03;;;11.81;54.98
6567;BME280;3317;43.994;22.878;2022-10-16T03:03:31;101930.59;;;11.78;55.32
6567;BME280;3317;43.994;22.878;2022-10-16T03:06:00;101924.69;;;11.73;56.80
6567;BME280;3317;43.994;22.878;2022-10-16T03:08:27;101921.38;;;11.69;56.67
6567;BME280;3317;43.994;22.878;2022-10-16T03:10:55;101909.59;;;11.59;56.15
6567;BME280;3317;43.994;22.878;2022-10-16T03:13:22;101927.09;;;11.66;55.76
6567;BME280;3317;43.994;22.878;2022-10-16T03:15:49;101929.91;;;11.65;55.53
6567;BME280;3317;43.994;22.878;2022-10-16T03:18:16;101931.91;;;11.63;55.51
6567;BME280;3317;43.994;22.878;2022-10-16T03:20:43;101941.06;;;11.62;55.25
6567;BME280;3317;43.994;22.878;2022-10-16T03:23:11;101937.28;;;11.53;55.71
6567;BME280;3317;43.994;22.878;2022-10-16T03:25:38;101944.88;;;11.59;56.43
6567;BME280;3317;43.994;22.878;2022-10-16T03:28:05;101938.84;;;11.55;56.94
6567;BME280;3317;43.994;22.878;2022-10-16T03:30:32;101949.84;;;11.54;56.63
6567;BME280;3317;43.994;22.878;2022-10-16T03:32:59;101957.25;;;11.52;56.05
6567;BME280;3317;43.994;22.878;2022-10-16T03:35:26;101947.25;;;11.52;55.65
6567;BME280;3317;43.994;22.878;2022-10-16T03:37:53;101951.25;;;11.48;55.32
6567;BME280;3317;43.994;22.878;2022-10-16T03:40:22;101963.81;;;11.49;54.67
6567;BME280;3317;43.994;22.878;2022-10-16T03:42:48;101958.78;;;11.45;55.09
6567;BME280;3317;43.994;22.878;2022-10-16T03:45:16;101962.31;;;11.45;55.22
6567;BME280;3317;43.994;22.878;2022-10-16T03:47:43;101963.47;;;11.43;56.95
6567;BME280;3317;43.994;22.878;2022-10-16T03:50:10;101963.84;;;11.38;57.60
6567;BME280;3317;43.994;22.878;2022-10-16T03:52:36;101947.97;;;11.33;56.80
6567;BME280;3317;43.994;22.878;2022-10-16T03:55:04;101960.53;;;11.34;57.28
6567;BME280;3317;43.994;22.878;2022-10-16T03:57:32;101965.22;;;11.32;57.67
6567;BME280;3317;43.994;22.878;2022-10-16T03:59:59;101942.81;;;11.19;57.88
6567;BME280;3317;43.994;22.878;2022-10-16T04:02:26;101974.47;;;11.30;56.92
6567;BME280;3317;43.994;22.878;2022-10-16T04:04:54;101958.84;;;11.22;56.38
6567;BME280;3317;43.994;22.878;2022-10-16T04:07:22;101967.72;;;11.24;55.53
6567;BME280;3317;43.994;22.878;2022-10-16T04:09:49;101973.28;;;11.22;55.19
6567;BME280;3317;43.994;22.878;2022-10-16T04:12:17;101968.97;;;11.20;55.18
6567;BME280;3317;43.994;22.878;2022-10-16T04:14:45;101970.97;;;11.18;54.82
6567;BME280;3317;43.994;22.878;2022-10-16T04:17:12;101972.78;;;11.17;54.70
6567;BME280;3317;43.994;22.878;2022-10-16T04:19:39;101967.50;;;11.16;54.63
6567;BME280;3317;43.994;22.878;2022-10-16T04:22:06;101967.75;;;11.12;54.58
6567;BME280;3317;43.994;22.878;2022-10-16T04:24:33;101975.03;;;11.12;54.46
6567;BME280;3317;43.994;22.878;2022-10-16T04:27:00;101984.28;;;11.09;55.76
6567;BME280;3317;43.994;22.878;2022-10-16T04:29:27;101979.13;;;11.06;56.23
6567;BME280;3317;43.994;22.878;2022-10-16T04:31:55;101986.53;;;11.04;56.18
6567;BME280;3317;43.994;22.878;2022-10-16T04:34:22;101988.72;;;10.99;55.98
6567;BME280;3317;43.994;22.878;2022-10-16T04:36:49;101990.72;;;10.97;55.83
6567;BME280;3317;43.994;22.878;2022-10-16T04:39:16;101984.69;;;10.93;55.13
6567;BME280;3317;43.994;22.878;2022-10-16T04:41:43;101986.66;;;10.91;54.95
6567;BME280;3317;43.994;22.878;2022-10-16T04:44:10;101990.50;;;10.89;55.18
6567;BME280;3317;43.994;22.878;2022-10-16T04:46:37;101982.59;;;10.85;54.55
6567;BME280;3317;43.994;22.878;2022-10-16T04:49:06;101991.59;;;10.86;55.15
6567;BME280;3317;43.994;22.878;2022-10-16T04:51:33;101978.78;;;10.77;56.44
6567;BME280;3317;43.994;22.878;2022-10-16T04:54:00;101988.28;;;10.82;57.14
6567;BME280;3317;43.994;22.878;2022-10-16T04:56:28;102001.09;;;10.80;57.97
6567;BME280;3317;43.994;22.878;2022-10-16T04:58:55;101999.63;;;10.76;57.63
6567;BME280;3317;43.994;22.878;2022-10-16T05:01:22;101997.91;;;10.75;57.22
6567;BME280;3317;43.994;22.878;2022-10-16T05:03:48;101998.88;;;10.74;57.22
6567;BME280;3317;43.994;22.878;2022-10-16T05:06:17;101998.13;;;10.72;56.81
6567;BME280;3317;43.994;22.878;2022-10-16T05:08:44;102006.28;;;10.72;56.50
6567;BME280;3317;43.994;22.878;2022-10-16T05:11:11;101992.50;;;10.64;56.37
6567;BME280;3317;43.994;22.878;2022-10-16T05:13:38;102016.28;;;10.72;56.89
6567;BME280;3317;43.994;22.878;2022-10-16T05:16:05;102019.09;;;10.70;56.41
6567;BME280;3317;43.994;22.878;2022-10-16T05:18:32;102009.75;;;10.63;56.73
6567;BME280;3317;43.994;22.878;2022-10-16T05:20:59;102029.94;;;10.70;57.11
6567;BME280;3317;43.994;22.878;2022-10-16T05:23:28;102006.53;;;10.57;57.46
6567;BME280;3317;43.994;22.878;2022-10-16T05:25:55;102029.81;;;10.72;58.04
6567;BME280;3317;43.994;22.878;2022-10-16T05:28:23;102040.53;;;10.73;58.21
6567;BME280;3317;43.994;22.878;2022-10-16T05:30:50;102038.69;;;10.74;58.17
6567;BME280;3317;43.994;22.878;2022-10-16T05:33:20;102036.00;;;10.74;59.08
6567;BME280;3317;43.994;22.878;2022-10-16T05:35:47;102031.28;;;10.76;58.88
6567;BME280;3317;43.994;22.878;2022-10-16T05:38:15;102031.91;;;10.79;58.46
6567;BME280;3317;43.994;22.878;2022-10-16T05:40:49;102041.78;;;10.80;57.80
6567;BME280;3317;43.994;22.878;2022-10-16T05:43:17;102046.94;;;10.83;57.51
6567;BME280;3317;43.994;22.878;2022-10-16T05:45:43;102041.41;;;10.85;57.83
6567;BME280;3317;43.994;22.878;2022-10-16T05:48:10;102044.38;;;10.82;57.62
6567;BME280;3317;43.994;22.878;2022-10-16T05:50:37;102057.91;;;10.93;57.32
6567;BME280;3317;43.994;22.878;2022-10-16T05:53:04;102064.09;;;10.95;57.11
6567;BME280;3317;43.994;22.878;2022-10-16T05:55:31;102048.94;;;10.93;57.39
6567;BME280;3317;43.994;22.878;2022-10-16T05:57:59;102061.88;;;11.01;58.01
6567;BME280;3317;43.994;22.878;2022-10-16T06:00:26;102066.78;;;11.07;58.30
6567;BME280;3317;43.994;22.878;2022-10-16T06:02:53;102062.22;;;11.07;58.42
6567;BME280;3317;43.994;22.878;2022-10-16T06:05:20;102057.78;;;11.06;58.11
6567;BME280;3317;43.994;22.878;2022-10-16T06:07:47;102081.84;;;11.22;57.73
6567;BME280;3317;43.994;22.878;2022-10-16T06:10:14;102080.69;;;11.25;57.83
6567;BME280;3317;43.994;22.878;2022-10-16T06:12:41;102076.78;;;11.29;57.94
6567;BME280;3317;43.994;22.878;2022-10-16T06:15:10;102097.59;;;11.40;58.21
6567;BME280;3317;43.994;22.878;2022-10-16T06:17:37;102096.34;;;11.44;58.44
6567;BME280;3317;43.994;22.878;2022-10-16T06:20:05;102086.44;;;11.54;58.45
6567;BME280;3317;43.994;22.878;2022-10-16T06:22:32;102091.25;;;11.62;59.44
6567;BME280;3317;43.994;22.878;2022-10-16T06:24:59;102094.44;;;11.67;59.05
6567;BME280;3317;43.994;22.878;2022-10-16T06:27:26;102092.94;;;11.75;59.93
6567;BME280;3317;43.994;22.878;2022-10-16T06:29:52;102098.59;;;11.83;60.05
6567;BME280;3317;43.994;22.878;2022-10-16T06:32:21;102101.66;;;11.90;60.16
6567;BME280;3317;43.994;22.878;2022-10-16T06:34:48;102101.75;;;12.00;60.31
6567;BME280;3317;43.994;22.878;2022-10-16T06:37:15;102114.44;;;12.10;60.31
6567;BME280;3317;43.994;22.878;2022-10-16T06:39:42;102119.25;;;12.18;60.97
6567;BME280;3317;43.994;22.878;2022-10-16T06:42:09;102120.91;;;12.31;60.94
6567;BME280;3317;43.994;22.878;2022-10-16T06:44:36;102128.53;;;12.37;61.07
6567;BME280;3317;43.994;22.878;2022-10-16T06:47:02;102125.47;;;12.51;61.15
6567;BME280;3317;43.994;22.878;2022-10-16T06:49:31;102128.13;;;12.63;60.52
6567;BME280;3317;43.994;22.878;2022-10-16T06:51:58;102129.91;;;12.74;59.93
6567;BME280;3317;43.994;22.878;2022-10-16T06:54:25;102130.84;;;12.84;59.89
6567;BME280;3317;43.994;22.878;2022-10-16T06:56:52;102127.91;;;12.97;60.02
6567;BME280;3317;43.994;22.878;2022-10-16T06:59:20;102135.72;;;13.12;60.85
6567;BME280;3317;43.994;22.878;2022-10-16T07:01:47;102114.06;;;13.10;61.16
6567;BME280;3317;43.994;22.878;2022-10-16T07:04:14;102134.22;;;13.38;63.73
6567;BME280;3317;43.994;22.878;2022-10-16T07:06:42;102136.88;;;13.50;62.51
6567;BME280;3317;43.994;22.878;2022-10-16T07:09:10;102078.91;;;13.38;63.17
6567;BME280;3317;43.994;22.878;2022-10-16T07:11:38;102130.03;;;13.85;64.03
6567;BME280;3317;43.994;22.878;2022-10-16T07:14:17;102121.31;;;13.91;60.86
6567;BME280;3317;43.994;22.878;2022-10-16T07:16:44;102132.53;;;13.98;60.67
6567;BME280;3317;43.994;22.878;2022-10-16T07:19:11;102131.78;;;14.16;61.06
6567;BME280;3317;43.994;22.878;2022-10-16T07:21:41;102138.53;;;14.21;59.28
6567;BME280;3317;43.994;22.878;2022-10-16T07:24:12;102128.78;;;14.29;59.17
6567;BME280;3317;43.994;22.878;2022-10-16T07:26:40;102120.63;;;14.29;59.53
6567;BME280;3317;43.994;22.878;2022-10-16T07:29:12;102136.47;;;14.63;59.24
6567;BME280;3317;43.994;22.878;2022-10-16T07:31:39;102137.94;;;14.77;59.11
6567;BME280;3317;43.994;22.878;2022-10-16T07:34:06;102142.66;;;14.85;57.64
6567;BME280;3317;43.994;22.878;2022-10-16T07:36:33;102127.25;;;15.03;58.31
6567;BME280;3317;43.994;22.878;2022-10-16T07:39:02;102137.34;;;15.21;58.25
6567;BME280;3317;43.994;22.878;2022-10-16T07:41:29;102129.38;;;15.38;56.28
6567;BME280;3317;43.994;22.878;2022-10-16T07:43:58;102118.03;;;15.32;55.89
6567;BME280;3317;43.994;22.878;2022-10-16T07:46:26;102135.25;;;15.43;55.60
6567;BME280;3317;43.994;22.878;2022-10-16T07:48:54;102133.59;;;15.50;55.30
6567;BME280;3317;43.994;22.878;2022-10-16T07:51:24;102140.19;;;15.57;55.08
6567;BME280;3317;43.994;22.878;2022-10-16T07:53:52;102145.97;;;15.72;55.18
6567;BME280;3317;43.994;22.878;2022-10-16T07:56:21;102146.97;;;15.81;53.77
6567;BME280;3317;43.994;22.878;2022-10-16T07:58:49;102144.38;;;15.80;53.17
6567;BME280;3317;43.994;22.878;2022-10-16T08:01:17;102150.47;;;15.73;53.04
6567;BME280;3317;43.994;22.878;2022-10-16T08:03:46;102159.47;;;15.56;53.01
6567;BME280;3317;43.994;22.878;2022-10-16T08:06:13;102164.75;;;15.39;53.65
6567;BME280;3317;43.994;22.878;2022-10-16T08:08:40;102163.16;;;15.37;54.11
6567;BME280;3317;43.994;22.878;2022-10-16T08:11:07;102115.00;;;15.07;53.96
6567;BME280;3317;43.994;22.878;2022-10-16T08:13:35;102162.41;;;15.44;54.38
6567;BME280;3317;43.994;22.878;2022-10-16T08:16:03;102152.84;;;15.58;54.00
6567;BME280;3317;43.994;22.878;2022-10-16T08:18:33;102157.16;;;15.79;54.15
6567;BME280;3317;43.994;22.878;2022-10-16T08:21:01;102151.69;;;16.07;54.40
6567;BME280;3317;43.994;22.878;2022-10-16T08:23:29;102159.41;;;16.30;53.15
6567;BME280;3317;43.994;22.878;2022-10-16T08:26:02;102132.03;;;16.48;53.24
6567;BME280;3317;43.994;22.878;2022-10-16T08:28:30;102155.44;;;16.95;52.69
6567;BME280;3317;43.994;22.878;2022-10-16T08:31:06;102154.94;;;17.18;51.01
6567;BME280;3317;43.994;22.878;2022-10-16T08:33:33;102151.28;;;17.36;50.61
6567;BME280;3317;43.994;22.878;2022-10-16T08:36:01;102154.69;;;17.38;49.35
6567;BME280;3317;43.994;22.878;2022-10-16T08:38:28;102156.44;;;17.47;50.17
6567;BME280;3317;43.994;22.878;2022-10-16T08:41:02;102159.25;;;17.64;50.22
6567;BME280;3317;43.994;22.878;2022-10-16T08:43:44;102162.84;;;17.64;48.99
6567;BME280;3317;43.994;22.878;2022-10-16T08:46:34;102162.09;;;17.45;48.55
6567;BME280;3317;43.994;22.878;2022-10-16T08:49:09;102173.88;;;17.46;49.51
6567;BME280;3317;43.994;22.878;2022-10-16T08:51:38;102175.66;;;17.55;49.18
6567;BME280;3317;43.994;22.878;2022-10-16T08:54:11;102169.53;;;17.70;49.29
6567;BME280;3317;43.994;22.878;2022-10-16T08:56:42;102170.41;;;17.70;48.29
6567;BME280;3317;43.994;22.878;2022-10-16T08:59:10;102161.41;;;17.52;48.62
6567;BME280;3317;43.994;22.878;2022-10-16T09:01:41;102169.94;;;17.40;48.73
6567;BME280;3317;43.994;22.878;2022-10-16T09:07:12;102168.41;;;17.38;50.66
6567;BME280;3317;43.994;22.878;2022-10-16T09:09:57;102170.72;;;17.67;49.84
6567;BME280;3317;43.994;22.878;2022-10-16T09:12:33;102171.13;;;17.81;48.16
6567;BME280;3317;43.994;22.878;2022-10-16T09:15:14;102173.38;;;17.94;48.66
6567;BME280;3317;43.994;22.878;2022-10-16T09:17:53;102159.72;;;18.19;48.32
6567;BME280;3317;43.994;22.878;2022-10-16T09:20:32;102169.53;;;18.46;48.31
6567;BME280;3317;43.994;22.878;2022-10-16T09:23:13;102155.78;;;18.71;47.30
6567;BME280;3317;43.994;22.878;2022-10-16T09:25:44;102169.84;;;18.76;46.30
6567;BME280;3317;43.994;22.878;2022-10-16T09:28:13;102167.59;;;18.88;47.15
6567;BME280;3317;43.994;22.878;2022-10-16T09:30:40;102141.50;;;18.76;45.90
6567;BME280;3317;43.994;22.878;2022-10-16T09:33:10;102156.78;;;18.86;46.68
6567;BME280;3317;43.994;22.878;2022-10-16T09:35:39;102145.97;;;18.93;46.32
6567;BME280;3317;43.994;22.878;2022-10-16T09:38:07;102159.47;;;19.20;46.98
6567;BME280;3317;43.994;22.878;2022-10-16T09:40:35;102149.50;;;19.27;45.52
6567;BME280;3317;43.994;22.878;2022-10-16T09:43:12;102151.22;;;19.28;45.21
6567;BME280;3317;43.994;22.878;2022-10-16T09:45:53;102147.19;;;19.47;45.71
6567;BME280;3317;43.994;22.878;2022-10-16T09:48:23;102153.91;;;19.76;46.01
6567;BME280;3317;43.994;22.878;2022-10-16T09:50:59;102158.09;;;20.19;45.44
6567;BME280;3317;43.994;22.878;2022-10-16T09:53:39;102161.69;;;20.28;43.36
6567;BME280;3317;43.994;22.878;2022-10-16T09:56:06;102154.69;;;20.17;43.37
6567;BME280;3317;43.994;22.878;2022-10-16T09:58:34;102157.69;;;20.07;43.28
6567;BME280;3317;43.994;22.878;2022-10-16T10:01:01;102154.75;;;20.08;43.93
6567;BME280;3317;43.994;22.878;2022-10-16T10:03:35;102150.97;;;20.09;43.69
6567;BME280;3317;43.994;22.878;2022-10-16T10:09:00;102149.59;;;19.74;43.50
6567;BME280;3317;43.994;22.878;2022-10-16T10:11:42;102098.69;;;19.14;44.17
6567;BME280;3317;43.994;22.878;2022-10-16T10:14:17;102130.13;;;19.20;44.97
6567;BME280;3317;43.994;22.878;2022-10-16T10:16:45;102142.44;;;19.33;44.77
6567;BME280;3317;43.994;22.878;2022-10-16T10:19:17;102146.22;;;19.32;44.96
6567;BME280;3317;43.994;22.878;2022-10-16T10:21:45;102134.13;;;19.41;44.90
6567;BME280;3317;43.994;22.878;2022-10-16T10:24:13;102126.16;;;19.54;44.33
6567;BME280;3317;43.994;22.878;2022-10-16T10:26:47;102124.31;;;19.47;44.09
6567;BME280;3317;43.994;22.878;2022-10-16T10:29:21;102120.06;;;19.36;44.09
6567;BME280;3317;43.994;22.878;2022-10-16T10:31:55;102125.69;;;19.51;44.57
6567;BME280;3317;43.994;22.878;2022-10-16T10:34:44;102118.19;;;19.68;44.17
6567;BME280;3317;43.994;22.878;2022-10-16T10:37:30;102110.63;;;19.70;43.46
6567;BME280;3317;43.994;22.878;2022-10-16T10:40:07;102114.81;;;19.89;44.03
6567;BME280;3317;43.994;22.878;2022-10-16T10:42:42;102099.69;;;19.85;43.50
6567;BME280;3317;43.994;22.878;2022-10-16T10:45:18;102104.91;;;20.03;42.74
6567;BME280;3317;43.994;22.878;2022-10-16T10:47:54;102101.13;;;20.28;43.61
6567;BME280;3317;43.994;22.878;2022-10-16T10:50:32;102095.56;;;20.51;42.70
6567;BME280;3317;43.994;22.878;2022-10-16T10:53:09;102102.41;;;20.55;41.14
6567;BME280;3317;43.994;22.878;2022-10-16T10:55:45;102089.28;;;20.57;41.38
6567;BME280;3317;43.994;22.878;2022-10-16T10:58:39;102097.97;;;20.69;40.96
6567;BME280;3317;43.994;22.878;2022-10-16T11:01:13;102087.03;;;20.76;41.06
6567;BME280;3317;43.994;22.878;2022-10-16T11:04:01;102083.47;;;20.90;40.86
6567;BME280;3317;43.994;22.878;2022-10-16T11:06:39;102088.97;;;20.90;40.21
6567;BME280;3317;43.994;22.878;2022-10-16T11:09:10;102076.34;;;21.11;41.46
6567;BME280;3317;43.994;22.878;2022-10-16T11:11:43;102080.84;;;21.34;40.73
6567;BME280;3317;43.994;22.878;2022-10-16T11:14:15;102064.75;;;21.52;39.66
6567;BME280;3317;43.994;22.878;2022-10-16T11:16:48;102071.16;;;21.60;37.99
6567;BME280;3317;43.994;22.878;2022-10-16T11:19:24;102080.09;;;21.62;38.23
6567;BME280;3317;43.994;22.878;2022-10-16T11:22:01;102061.69;;;21.47;37.07
6567;BME280;3317;43.994;22.878;2022-10-16T11:24:36;102064.81;;;21.59;38.27
6567;BME280;3317;43.994;22.878;2022-10-16T11:27:09;102006.78;;;21.31;37.71
6567;BME280;3317;43.994;22.878;2022-10-16T11:29:46;102076.03;;;21.73;36.90
6567;BME280;3317;43.994;22.878;2022-10-16T11:32:21;102072.09;;;21.82;36.94
6567;BME280;3317;43.994;22.878;2022-10-16T11:34:52;102071.22;;;21.82;36.30
6567;BME280;3317;43.994;22.878;2022-10-16T11:37:24;102069.50;;;21.80;36.46
6567;BME280;3317;43.994;22.878;2022-10-16T11:39:57;102071.56;;;21.72;36.24
6567;BME280;3317;43.994;22.878;2022-10-16T11:42:30;102071.16;;;21.60;36.16
6567;BME280;3317;43.994;22.878;2022-10-16T11:45:03;102063.88;;;21.52;35.65
6567;BME280;3317;43.994;22.878;2022-10-16T11:47:37;102068.19;;;21.39;36.33
6567;BME280;3317;43.994;22.878;2022-10-16T11:50:17;102067.50;;;21.52;37.07
6567;BME280;3317;43.994;22.878;2022-10-16T11:52:52;102067.75;;;21.58;36.25
6567;BME280;3317;43.994;22.878;2022-10-16T11:55:24;102061.94;;;21.67;36.25
6567;BME280;3317;43.994;22.878;2022-10-16T11:58:00;102077.94;;;21.57;35.64
6567;BME280;3317;43.994;22.878;2022-10-16T12:00:33;102064.25;;;21.49;36.60
6567;BME280;3317;43.994;22.878;2022-10-16T12:03:11;102072.47;;;21.42;35.72
6567;BME280;3317;43.994;22.878;2022-10-16T12:05:55;102069.94;;;21.26;36.00
6567;BME280;3317;43.994;22.878;2022-10-16T12:08:27;102049.34;;;21.06;36.03
6567;BME280;3317;43.994;22.878;2022-10-16T12:11:03;102064.09;;;20.99;36.39
6567;BME280;3317;43.994;22.878;2022-10-16T12:13:33;102057.72;;;20.98;36.76
6567;BME280;3317;43.994;22.878;2022-10-16T12:16:19;102057.72;;;20.98;37.39
6567;BME280;3317;43.994;22.878;2022-10-16T12:18:47;102059.06;;;20.87;36.99
6567;BME280;3317;43.994;22.878;2022-10-16T12:21:16;102058.44;;;20.77;36.88
6567;BME280;3317;43.994;22.878;2022-10-16T12:23:50;102053.41;;;20.65;37.41
6567;BME280;3317;43.994;22.878;2022-10-16T12:26:25;102001.53;;;20.24;37.58
6567;BME280;3317;43.994;22.878;2022-10-16T12:28:53;102039.94;;;20.56;37.62
6567;BME280;3317;43.994;22.878;2022-10-16T12:31:21;102056.72;;;20.61;37.42
6567;BME280;3317;43.994;22.878;2022-10-16T12:33:58;102043.31;;;20.43;36.76
6567;BME280;3317;43.994;22.878;2022-10-16T12:36:27;102048.22;;;20.32;37.29
6567;BME280;3317;43.994;22.878;2022-10-16T12:38:58;102043.00;;;20.22;37.71
6567;BME280;3317;43.994;22.878;2022-10-16T12:41:27;102045.47;;;20.32;38.37
6567;BME280;3317;43.994;22.878;2022-10-16T12:43:55;102051.91;;;20.24;37.80
6567;BME280;3317;43.994;22.878;2022-10-16T12:46:38;102045.19;;;20.27;38.28
6567;BME280;3317;43.994;22.878;2022-10-16T12:49:17;102037.53;;;20.37;38.31
6567;BME280;3317;43.994;22.878;2022-10-16T12:51:47;102038.56;;;20.36;38.52
6567;BME280;3317;43.994;22.878;2022-10-16T12:54:17;102037.59;;;20.29;38.34
6567;BME280;3317;43.994;22.878;2022-10-16T12:56:53;102034.09;;;20.20;37.67
6567;BME280;3317;43.994;22.878;2022-10-16T12:59:32;102038.44;;;20.15;38.20
6567;BME280;3317;43.994;22.878;2022-10-16T13:05:15;102034.78;;;19.99;39.06
6567;BME280;3317;43.994;22.878;2022-10-16T13:07:55;102037.06;;;19.87;38.80
6567;BME280;3317;43.994;22.878;2022-10-16T13:10:32;102033.91;;;19.75;38.72
6567;BME280;3317;43.994;22.878;2022-10-16T13:13:27;102036.72;;;19.67;38.70
6567;BME280;3317;43.994;22.878;2022-10-16T13:16:13;102033.38;;;19.56;38.94
6567;BME280;3317;43.994;22.878;2022-10-16T13:18:54;102034.22;;;19.57;39.14
6567;BME280;3317;43.994;22.878;2022-10-16T13:21:33;102037.88;;;19.49;39.43
6567;BME280;3317;43.994;22.878;2022-10-16T13:24:11;102038.63;;;19.43;39.57
6567;BME280;3317;43.994;22.878;2022-10-16T13:26:48;102037.31;;;19.31;39.09